Naples, Italy

8:15 PM CET on December 03, 2016 (GMT +0100)
Calata San Marco | | Change Station

Elev 0 ft 40.84 °N, 14.25 °E | Updated 7 minutes ago

Mostly Cloudy
Mostly Cloudy
60.3 °F
Feels Like 60.3 °F
N
1.9
Wind Variable Wind from NNW
Gusts 4.3 mph

Today
High -- | Low -- °F
--% Chance of Precip.
Yesterday
High -- | Low -- °F
Precip. -- in
Pressure 30.12 in
Visibility 6.2 miles
Clouds Scattered Clouds 4000 ft
Mostly Cloudy 7000 ft
Dew Point 46 °F
Humidity 58%
Rainfall Not available.
Snow Depth Not available.
7:10 AM 4:35 PM
Waxing Crescent, 16% visible
METAR LIRM 031855Z 03004KT 9999 SCT040 BKN070 11/10 Q1020 RMK BKN VIS MIN 9999 WIND THR06 02004KT BLU
Pressure 30.12 in
Visibility 6.2 miles
Clouds Scattered Clouds 4000 ft
Mostly Cloudy 7000 ft
Dew Point 46 °F
Humidity 58%
Rainfall Not available.
Snow Depth Not available.
7:10 AM 4:35 PM
Waxing Crescent, 16% visible
METAR LIRM 031855Z 03004KT 9999 SCT040 BKN070 11/10 Q1020 RMK BKN VIS MIN 9999 WIND THR06 02004KT BLU

10-Day Weather Forecast

×

Almanac

Astronomy

Dec. 03, 2016 Rise Set
Actual Time
Civil Twilight
Nautical Twilight
Astronomical Twilight
Moon
Length of Visible Light
Length of Day
Tomorrow will be .
, % of the Moon is Illuminated

Today's Extremes

Country Highs Country Lows

Community

WunderPhotos

Upload Photos

1,955,472 photos uploaded!

WunderBlog® & News

Nearby

Air Quality

  Air Quality AQ Index Pollutant
Not available.

Snow Depth

Station Depth Elevation

Earthquake Activity

City Distance Mag. Time & Date
Minimum magnitude displayed is 2.5.

Coastal Water Temperatures

Place Temperature

Stations

Nearby Weather Stations

Station Location Temp. Windchill Dew Point Humidity Wind Precip. Elev Updated Type